sensor_id;sensor_type;location;lat;lon;timestamp;P1;durP1;ratioP1;P2;durP2;ratioP2
3427;SDS011;1727;42.624;23.406;2023-04-08T00:01:28;23.93;;;14.77;;
3427;SDS011;1727;42.624;23.406;2023-04-08T00:03:55;14.53;;;12.47;;
3427;SDS011;1727;42.624;23.406;2023-04-08T00:06:23;16.90;;;13.53;;
3427;SDS011;1727;42.624;23.406;2023-04-08T00:08:51;18.60;;;14.47;;
3427;SDS011;1727;42.624;23.406;2023-04-08T00:11:17;17.20;;;13.77;;
3427;SDS011;1727;42.624;23.406;2023-04-08T00:13:44;17.47;;;14.97;;
3427;SDS011;1727;42.624;23.406;2023-04-08T00:16:11;23.23;;;18.50;;
3427;SDS011;1727;42.624;23.406;2023-04-08T00:18:38;23.20;;;17.67;;
3427;SDS011;1727;42.624;23.406;2023-04-08T00:21:05;26.20;;;20.33;;
3427;SDS011;1727;42.624;23.406;2023-04-08T00:23:33;27.93;;;20.37;;
3427;SDS011;1727;42.624;23.406;2023-04-08T00:26:00;32.40;;;22.90;;
3427;SDS011;1727;42.624;23.406;2023-04-08T00:28:27;29.70;;;24.30;;
3427;SDS011;1727;42.624;23.406;2023-04-08T00:30:54;38.23;;;24.30;;
3427;SDS011;1727;42.624;23.406;2023-04-08T00:33:21;32.70;;;23.03;;
3427;SDS011;1727;42.624;23.406;2023-04-08T00:35:49;27.97;;;23.60;;
3427;SDS011;1727;42.624;23.406;2023-04-08T00:38:16;29.27;;;23.33;;
3427;SDS011;1727;42.624;23.406;2023-04-08T00:40:44;33.70;;;26.20;;
3427;SDS011;1727;42.624;23.406;2023-04-08T00:43:11;34.93;;;23.73;;
3427;SDS011;1727;42.624;23.406;2023-04-08T00:45:40;30.70;;;23.00;;
3427;SDS011;1727;42.624;23.406;2023-04-08T00:48:07;36.17;;;22.90;;
3427;SDS011;1727;42.624;23.406;2023-04-08T00:50:34;32.10;;;24.60;;
3427;SDS011;1727;42.624;23.406;2023-04-08T00:53:00;31.67;;;24.53;;
3427;SDS011;1727;42.624;23.406;2023-04-08T00:55:27;32.73;;;25.00;;
3427;SDS011;1727;42.624;23.406;2023-04-08T00:57:55;28.63;;;22.03;;
3427;SDS011;1727;42.624;23.406;2023-04-08T01:00:23;30.37;;;23.20;;
3427;SDS011;1727;42.624;23.406;2023-04-08T01:02:54;27.97;;;20.87;;
3427;SDS011;1727;42.624;23.406;2023-04-08T01:05:27;32.43;;;21.77;;
3427;SDS011;1727;42.624;23.406;2023-04-08T01:08:04;26.63;;;18.30;;
3427;SDS011;1727;42.624;23.406;2023-04-08T01:10:32;26.33;;;19.37;;
3427;SDS011;1727;42.624;23.406;2023-04-08T01:13:04;19.17;;;15.77;;
3427;SDS011;1727;42.624;23.406;2023-04-08T01:15:36;20.87;;;16.10;;
3427;SDS011;1727;42.624;23.406;2023-04-08T01:18:05;16.87;;;14.13;;
3427;SDS011;1727;42.624;23.406;2023-04-08T01:20:36;15.13;;;13.43;;
3427;SDS011;1727;42.624;23.406;2023-04-08T01:23:07;19.60;;;13.80;;
3427;SDS011;1727;42.624;23.406;2023-04-08T01:25:38;17.43;;;12.93;;
3427;SDS011;1727;42.624;23.406;2023-04-08T01:28:08;15.23;;;12.57;;
3427;SDS011;1727;42.624;23.406;2023-04-08T01:30:37;14.43;;;12.40;;
3427;SDS011;1727;42.624;23.406;2023-04-08T01:33:05;17.50;;;14.87;;
3427;SDS011;1727;42.624;23.406;2023-04-08T01:35:33;17.70;;;13.57;;
3427;SDS011;1727;42.624;23.406;2023-04-08T01:38:01;18.77;;;15.40;;
3427;SDS011;1727;42.624;23.406;2023-04-08T01:40:28;18.23;;;14.23;;
3427;SDS011;1727;42.624;23.406;2023-04-08T01:42:57;17.07;;;14.30;;
3427;SDS011;1727;42.624;23.406;2023-04-08T01:45:27;19.77;;;15.00;;
3427;SDS011;1727;42.624;23.406;2023-04-08T01:47:55;17.17;;;14.43;;
3427;SDS011;1727;42.624;23.406;2023-04-08T01:50:23;17.67;;;15.10;;
3427;SDS011;1727;42.624;23.406;2023-04-08T01:52:51;18.57;;;14.63;;
3427;SDS011;1727;42.624;23.406;2023-04-08T01:55:20;19.73;;;14.10;;
3427;SDS011;1727;42.624;23.406;2023-04-08T01:57:47;16.23;;;14.57;;
3427;SDS011;1727;42.624;23.406;2023-04-08T02:00:18;14.63;;;13.17;;
3427;SDS011;1727;42.624;23.406;2023-04-08T02:02:47;17.63;;;14.70;;
3427;SDS011;1727;42.624;23.406;2023-04-08T02:05:15;20.67;;;14.80;;
3427;SDS011;1727;42.624;23.406;2023-04-08T02:07:42;16.87;;;13.80;;
3427;SDS011;1727;42.624;23.406;2023-04-08T02:10:10;18.00;;;14.73;;
3427;SDS011;1727;42.624;23.406;2023-04-08T02:12:37;17.10;;;12.87;;
3427;SDS011;1727;42.624;23.406;2023-04-08T02:15:05;15.67;;;13.40;;
3427;SDS011;1727;42.624;23.406;2023-04-08T02:17:34;17.33;;;13.70;;
3427;SDS011;1727;42.624;23.406;2023-04-08T02:20:09;18.10;;;14.10;;
3427;SDS011;1727;42.624;23.406;2023-04-08T02:22:44;15.07;;;13.50;;
3427;SDS011;1727;42.624;23.406;2023-04-08T02:25:14;20.23;;;13.53;;
3427;SDS011;1727;42.624;23.406;2023-04-08T02:27:42;17.07;;;13.67;;
3427;SDS011;1727;42.624;23.406;2023-04-08T02:30:10;16.03;;;13.40;;
3427;SDS011;1727;42.624;23.406;2023-04-08T02:32:38;21.27;;;14.80;;
3427;SDS011;1727;42.624;23.406;2023-04-08T02:35:07;17.53;;;12.50;;
3427;SDS011;1727;42.624;23.406;2023-04-08T02:37:36;21.90;;;13.60;;
3427;SDS011;1727;42.624;23.406;2023-04-08T02:40:03;18.87;;;13.83;;
3427;SDS011;1727;42.624;23.406;2023-04-08T02:42:47;16.50;;;13.50;;
3427;SDS011;1727;42.624;23.406;2023-04-08T02:45:13;23.77;;;16.57;;
3427;SDS011;1727;42.624;23.406;2023-04-08T02:47:40;23.57;;;16.30;;
3427;SDS011;1727;42.624;23.406;2023-04-08T02:50:09;19.47;;;16.10;;
3427;SDS011;1727;42.624;23.406;2023-04-08T02:52:36;19.70;;;14.17;;
3427;SDS011;1727;42.624;23.406;2023-04-08T02:55:03;19.67;;;15.70;;
3427;SDS011;1727;42.624;23.406;2023-04-08T02:57:34;19.63;;;16.90;;
3427;SDS011;1727;42.624;23.406;2023-04-08T03:00:01;22.03;;;15.97;;
3427;SDS011;1727;42.624;23.406;2023-04-08T03:02:29;21.40;;;15.43;;
3427;SDS011;1727;42.624;23.406;2023-04-08T03:04:56;22.53;;;16.40;;
3427;SDS011;1727;42.624;23.406;2023-04-08T03:07:24;23.17;;;17.70;;
3427;SDS011;1727;42.624;23.406;2023-04-08T03:09:51;21.10;;;16.60;;
3427;SDS011;1727;42.624;23.406;2023-04-08T03:12:19;21.23;;;17.00;;
3427;SDS011;1727;42.624;23.406;2023-04-08T03:14:46;20.57;;;17.27;;
3427;SDS011;1727;42.624;23.406;2023-04-08T03:17:13;29.47;;;19.70;;
3427;SDS011;1727;42.624;23.406;2023-04-08T03:19:39;28.10;;;20.10;;
3427;SDS011;1727;42.624;23.406;2023-04-08T03:22:06;26.23;;;21.73;;
3427;SDS011;1727;42.624;23.406;2023-04-08T03:24:35;27.30;;;20.47;;
3427;SDS011;1727;42.624;23.406;2023-04-08T03:27:02;24.83;;;19.33;;
3427;SDS011;1727;42.624;23.406;2023-04-08T03:29:29;23.23;;;20.00;;
3427;SDS011;1727;42.624;23.406;2023-04-08T03:31:56;27.17;;;20.53;;
3427;SDS011;1727;42.624;23.406;2023-04-08T03:34:23;24.77;;;19.83;;
3427;SDS011;1727;42.624;23.406;2023-04-08T03:36:50;28.03;;;20.50;;
3427;SDS011;1727;42.624;23.406;2023-04-08T03:39:16;24.67;;;19.70;;
3427;SDS011;1727;42.624;23.406;2023-04-08T03:41:44;26.10;;;19.50;;
3427;SDS011;1727;42.624;23.406;2023-04-08T03:44:11;24.87;;;18.60;;
3427;SDS011;1727;42.624;23.406;2023-04-08T03:46:38;29.80;;;20.70;;
3427;SDS011;1727;42.624;23.406;2023-04-08T03:49:05;24.83;;;19.13;;
3427;SDS011;1727;42.624;23.406;2023-04-08T03:51:32;23.20;;;17.73;;
3427;SDS011;1727;42.624;23.406;2023-04-08T03:53:58;24.97;;;17.17;;
3427;SDS011;1727;42.624;23.406;2023-04-08T03:56:25;20.37;;;17.03;;
3427;SDS011;1727;42.624;23.406;2023-04-08T03:58:53;27.30;;;19.50;;
3427;SDS011;1727;42.624;23.406;2023-04-08T04:01:20;23.80;;;19.40;;
3427;SDS011;1727;42.624;23.406;2023-04-08T04:03:47;26.63;;;20.23;;
3427;SDS011;1727;42.624;23.406;2023-04-08T04:06:13;21.67;;;17.80;;
3427;SDS011;1727;42.624;23.406;2023-04-08T04:08:40;24.90;;;18.53;;
3427;SDS011;1727;42.624;23.406;2023-04-08T04:11:07;30.63;;;22.27;;
3427;SDS011;1727;42.624;23.406;2023-04-08T04:13:34;40.47;;;27.07;;
3427;SDS011;1727;42.624;23.406;2023-04-08T04:16:02;34.60;;;25.50;;
3427;SDS011;1727;42.624;23.406;2023-04-08T04:18:29;35.17;;;26.70;;
3427;SDS011;1727;42.624;23.406;2023-04-08T04:20:56;34.10;;;26.87;;
3427;SDS011;1727;42.624;23.406;2023-04-08T04:23:22;46.03;;;27.40;;
3427;SDS011;1727;42.624;23.406;2023-04-08T04:25:50;36.30;;;25.70;;
3427;SDS011;1727;42.624;23.406;2023-04-08T04:28:16;42.03;;;27.13;;
3427;SDS011;1727;42.624;23.406;2023-04-08T04:30:43;33.80;;;25.40;;
3427;SDS011;1727;42.624;23.406;2023-04-08T04:33:11;33.30;;;24.97;;
3427;SDS011;1727;42.624;23.406;2023-04-08T04:35:38;33.55;;;24.80;;
3427;SDS011;1727;42.624;23.406;2023-04-08T04:38:05;30.40;;;21.80;;
3427;SDS011;1727;42.624;23.406;2023-04-08T04:40:36;27.33;;;20.40;;
3427;SDS011;1727;42.624;23.406;2023-04-08T04:43:03;24.00;;;19.10;;
3427;SDS011;1727;42.624;23.406;2023-04-08T04:45:30;29.27;;;20.20;;
3427;SDS011;1727;42.624;23.406;2023-04-08T04:47:57;29.47;;;23.03;;
3427;SDS011;1727;42.624;23.406;2023-04-08T04:50:25;33.23;;;23.97;;
3427;SDS011;1727;42.624;23.406;2023-04-08T04:52:52;33.60;;;24.37;;
3427;SDS011;1727;42.624;23.406;2023-04-08T04:55:19;30.70;;;23.20;;
3427;SDS011;1727;42.624;23.406;2023-04-08T04:57:46;36.33;;;25.60;;
3427;SDS011;1727;42.624;23.406;2023-04-08T05:00:13;39.90;;;26.80;;
3427;SDS011;1727;42.624;23.406;2023-04-08T05:02:40;34.70;;;25.40;;
3427;SDS011;1727;42.624;23.406;2023-04-08T05:05:07;40.27;;;26.60;;
3427;SDS011;1727;42.624;23.406;2023-04-08T05:07:36;34.77;;;26.90;;
3427;SDS011;1727;42.624;23.406;2023-04-08T05:10:03;39.60;;;25.37;;
3427;SDS011;1727;42.624;23.406;2023-04-08T05:12:30;33.90;;;25.57;;
3427;SDS011;1727;42.624;23.406;2023-04-08T05:14:57;51.03;;;27.33;;
3427;SDS011;1727;42.624;23.406;2023-04-08T05:17:24;49.13;;;31.00;;
3427;SDS011;1727;42.624;23.406;2023-04-08T05:19:51;53.43;;;37.43;;
3427;SDS011;1727;42.624;23.406;2023-04-08T05:22:18;49.37;;;32.60;;
3427;SDS011;1727;42.624;23.406;2023-04-08T05:24:46;53.97;;;37.07;;
3427;SDS011;1727;42.624;23.406;2023-04-08T05:27:13;39.10;;;29.17;;
3427;SDS011;1727;42.624;23.406;2023-04-08T05:29:40;48.13;;;25.93;;
3427;SDS011;1727;42.624;23.406;2023-04-08T05:32:06;38.57;;;26.60;;
3427;SDS011;1727;42.624;23.406;2023-04-08T05:34:33;58.17;;;35.87;;
3427;SDS011;1727;42.624;23.406;2023-04-08T05:37:00;50.83;;;34.17;;
3427;SDS011;1727;42.624;23.406;2023-04-08T05:39:27;37.80;;;29.40;;
3427;SDS011;1727;42.624;23.406;2023-04-08T05:41:55;49.10;;;30.00;;
3427;SDS011;1727;42.624;23.406;2023-04-08T05:44:22;43.33;;;29.27;;
3427;SDS011;1727;42.624;23.406;2023-04-08T05:46:48;54.47;;;37.33;;
3427;SDS011;1727;42.624;23.406;2023-04-08T05:49:15;50.77;;;39.30;;
3427;SDS011;1727;42.624;23.406;2023-04-08T05:51:42;44.43;;;35.80;;
3427;SDS011;1727;42.624;23.406;2023-04-08T05:54:09;49.37;;;31.43;;
3427;SDS011;1727;42.624;23.406;2023-04-08T05:56:35;36.47;;;26.00;;
3427;SDS011;1727;42.624;23.406;2023-04-08T05:59:04;29.10;;;22.90;;
3427;SDS011;1727;42.624;23.406;2023-04-08T06:01:30;27.30;;;22.17;;
3427;SDS011;1727;42.624;23.406;2023-04-08T06:03:57;28.00;;;20.23;;
3427;SDS011;1727;42.624;23.406;2023-04-08T06:06:24;24.20;;;19.27;;
3427;SDS011;1727;42.624;23.406;2023-04-08T06:08:51;33.10;;;23.17;;
3427;SDS011;1727;42.624;23.406;2023-04-08T06:11:18;37.33;;;21.67;;
3427;SDS011;1727;42.624;23.406;2023-04-08T06:13:45;38.53;;;22.00;;
3427;SDS011;1727;42.624;23.406;2023-04-08T06:16:14;33.03;;;23.30;;
3427;SDS011;1727;42.624;23.406;2023-04-08T06:18:42;43.90;;;27.53;;
3427;SDS011;1727;42.624;23.406;2023-04-08T06:21:09;27.03;;;19.93;;
3427;SDS011;1727;42.624;23.406;2023-04-08T06:23:36;27.33;;;20.20;;
3427;SDS011;1727;42.624;23.406;2023-04-08T06:26:03;27.17;;;20.70;;
3427;SDS011;1727;42.624;23.406;2023-04-08T06:28:30;32.33;;;20.37;;
3427;SDS011;1727;42.624;23.406;2023-04-08T06:30:57;21.67;;;17.30;;
3427;SDS011;1727;42.624;23.406;2023-04-08T06:33:25;23.57;;;17.50;;
3427;SDS011;1727;42.624;23.406;2023-04-08T06:36:00;20.00;;;16.97;;
3427;SDS011;1727;42.624;23.406;2023-04-08T06:38:27;23.23;;;17.50;;
3427;SDS011;1727;42.624;23.406;2023-04-08T06:40:54;21.40;;;17.37;;
3427;SDS011;1727;42.624;23.406;2023-04-08T06:43:21;23.07;;;16.70;;
3427;SDS011;1727;42.624;23.406;2023-04-08T06:45:48;25.27;;;17.27;;
3427;SDS011;1727;42.624;23.406;2023-04-08T06:48:15;23.30;;;16.07;;
3427;SDS011;1727;42.624;23.406;2023-04-08T06:50:43;23.43;;;15.80;;
3427;SDS011;1727;42.624;23.406;2023-04-08T06:53:10;26.03;;;18.00;;
3427;SDS011;1727;42.624;23.406;2023-04-08T06:55:37;24.60;;;18.53;;
3427;SDS011;1727;42.624;23.406;2023-04-08T06:58:03;56.50;;;32.50;;
3427;SDS011;1727;42.624;23.406;2023-04-08T07:00:30;50.80;;;32.10;;
3427;SDS011;1727;42.624;23.406;2023-04-08T07:02:58;36.37;;;22.00;;
3427;SDS011;1727;42.624;23.406;2023-04-08T07:05:24;42.63;;;26.40;;
3427;SDS011;1727;42.624;23.406;2023-04-08T07:07:53;30.40;;;19.03;;
3427;SDS011;1727;42.624;23.406;2023-04-08T07:10:19;35.83;;;24.83;;
3427;SDS011;1727;42.624;23.406;2023-04-08T07:12:46;32.20;;;22.67;;
3427;SDS011;1727;42.624;23.406;2023-04-08T07:15:13;35.73;;;21.37;;
3427;SDS011;1727;42.624;23.406;2023-04-08T07:17:40;29.63;;;20.37;;
3427;SDS011;1727;42.624;23.406;2023-04-08T07:20:07;25.33;;;18.03;;
3427;SDS011;1727;42.624;23.406;2023-04-08T07:22:34;23.10;;;17.53;;
3427;SDS011;1727;42.624;23.406;2023-04-08T07:25:03;26.23;;;16.37;;
3427;SDS011;1727;42.624;23.406;2023-04-08T07:27:30;25.07;;;17.80;;
3427;SDS011;1727;42.624;23.406;2023-04-08T07:29:56;24.03;;;17.70;;
3427;SDS011;1727;42.624;23.406;2023-04-08T07:32:23;23.00;;;16.70;;
3427;SDS011;1727;42.624;23.406;2023-04-08T07:34:50;24.03;;;19.70;;
3427;SDS011;1727;42.624;23.406;2023-04-08T07:37:17;31.70;;;21.43;;
3427;SDS011;1727;42.624;23.406;2023-04-08T07:39:43;24.47;;;18.30;;
3427;SDS011;1727;42.624;23.406;2023-04-08T07:42:12;23.30;;;18.10;;
3427;SDS011;1727;42.624;23.406;2023-04-08T07:44:38;22.83;;;16.77;;
3427;SDS011;1727;42.624;23.406;2023-04-08T07:47:05;21.50;;;16.70;;
3427;SDS011;1727;42.624;23.406;2023-04-08T07:49:32;22.80;;;17.70;;
3427;SDS011;1727;42.624;23.406;2023-04-08T07:51:59;30.03;;;19.23;;
3427;SDS011;1727;42.624;23.406;2023-04-08T07:54:26;25.07;;;17.93;;
3427;SDS011;1727;42.624;23.406;2023-04-08T07:56:52;22.77;;;17.40;;
3427;SDS011;1727;42.624;23.406;2023-04-08T07:59:20;21.10;;;17.20;;
3427;SDS011;1727;42.624;23.406;2023-04-08T08:01:47;20.90;;;15.70;;
3427;SDS011;1727;42.624;23.406;2023-04-08T08:04:14;22.37;;;16.97;;
3427;SDS011;1727;42.624;23.406;2023-04-08T08:06:41;18.23;;;16.13;;
3427;SDS011;1727;42.624;23.406;2023-04-08T08:09:07;22.67;;;15.07;;
3427;SDS011;1727;42.624;23.406;2023-04-08T08:11:34;21.90;;;15.67;;
3427;SDS011;1727;42.624;23.406;2023-04-08T08:14:01;19.13;;;15.13;;
3427;SDS011;1727;42.624;23.406;2023-04-08T08:16:30;16.77;;;14.53;;
3427;SDS011;1727;42.624;23.406;2023-04-08T08:18:57;26.13;;;15.93;;
3427;SDS011;1727;42.624;23.406;2023-04-08T08:21:24;17.03;;;14.90;;
3427;SDS011;1727;42.624;23.406;2023-04-08T08:23:51;17.70;;;13.90;;
3427;SDS011;1727;42.624;23.406;2023-04-08T08:26:19;18.57;;;14.83;;
3427;SDS011;1727;42.624;23.406;2023-04-08T08:28:46;16.07;;;14.23;;
3427;SDS011;1727;42.624;23.406;2023-04-08T08:31:13;19.30;;;15.10;;
3427;SDS011;1727;42.624;23.406;2023-04-08T08:33:41;26.53;;;16.20;;
3427;SDS011;1727;42.624;23.406;2023-04-08T08:36:08;21.87;;;16.70;;
3427;SDS011;1727;42.624;23.406;2023-04-08T08:38:34;17.63;;;15.00;;
3427;SDS011;1727;42.624;23.406;2023-04-08T08:41:01;20.77;;;15.40;;
3427;SDS011;1727;42.624;23.406;2023-04-08T08:43:28;26.37;;;17.10;;
3427;SDS011;1727;42.624;23.406;2023-04-08T08:45:57;25.73;;;16.90;;
3427;SDS011;1727;42.624;23.406;2023-04-08T08:48:24;21.60;;;17.20;;
3427;SDS011;1727;42.624;23.406;2023-04-08T08:50:53;23.40;;;17.43;;
3427;SDS011;1727;42.624;23.406;2023-04-08T08:53:20;21.80;;;16.67;;
3427;SDS011;1727;42.624;23.406;2023-04-08T08:55:48;25.47;;;18.40;;
3427;SDS011;1727;42.624;23.406;2023-04-08T08:58:14;31.37;;;21.33;;
3427;SDS011;1727;42.624;23.406;2023-04-08T09:00:41;37.07;;;21.57;;
3427;SDS011;1727;42.624;23.406;2023-04-08T09:03:15;25.00;;;19.20;;
3427;SDS011;1727;42.624;23.406;2023-04-08T09:05:46;33.70;;;21.80;;
3427;SDS011;1727;42.624;23.406;2023-04-08T09:08:28;26.30;;;20.57;;
3427;SDS011;1727;42.624;23.406;2023-04-08T09:10:56;28.20;;;21.33;;
3427;SDS011;1727;42.624;23.406;2023-04-08T09:13:37;26.67;;;18.80;;
3427;SDS011;1727;42.624;23.406;2023-04-08T09:16:04;26.27;;;17.70;;
3427;SDS011;1727;42.624;23.406;2023-04-08T09:18:33;23.13;;;17.50;;
3427;SDS011;1727;42.624;23.406;2023-04-08T09:21:00;26.27;;;18.53;;
3427;SDS011;1727;42.624;23.406;2023-04-08T09:23:38;26.70;;;20.77;;
3427;SDS011;1727;42.624;23.406;2023-04-08T09:26:07;25.17;;;18.60;;
3427;SDS011;1727;42.624;23.406;2023-04-08T09:28:34;22.03;;;16.17;;
3427;SDS011;1727;42.624;23.406;2023-04-08T09:31:06;28.90;;;20.40;;
3427;SDS011;1727;42.624;23.406;2023-04-08T09:33:44;28.03;;;18.63;;
3427;SDS011;1727;42.624;23.406;2023-04-08T09:36:12;19.57;;;15.20;;
3427;SDS011;1727;42.624;23.406;2023-04-08T09:38:40;23.00;;;16.20;;
3427;SDS011;1727;42.624;23.406;2023-04-08T09:41:07;20.27;;;14.93;;
3427;SDS011;1727;42.624;23.406;2023-04-08T09:43:41;20.63;;;16.30;;
3427;SDS011;1727;42.624;23.406;2023-04-08T09:46:13;19.97;;;14.60;;
3427;SDS011;1727;42.624;23.406;2023-04-08T09:48:45;27.43;;;17.40;;
3427;SDS011;1727;42.624;23.406;2023-04-08T09:51:16;20.83;;;16.17;;
3427;SDS011;1727;42.624;23.406;2023-04-08T09:53:47;23.17;;;14.30;;
3427;SDS011;1727;42.624;23.406;2023-04-08T09:56:20;23.60;;;15.93;;
3427;SDS011;1727;42.624;23.406;2023-04-08T09:58:50;16.97;;;13.50;;
3427;SDS011;1727;42.624;23.406;2023-04-08T10:01:21;20.13;;;16.93;;
3427;SDS011;1727;42.624;23.406;2023-04-08T10:03:53;28.87;;;17.47;;
3427;SDS011;1727;42.624;23.406;2023-04-08T10:06:21;23.50;;;16.30;;
3427;SDS011;1727;42.624;23.406;2023-04-08T10:08:55;22.40;;;17.37;;
3427;SDS011;1727;42.624;23.406;2023-04-08T10:11:23;22.80;;;17.10;;
3427;SDS011;1727;42.624;23.406;2023-04-08T10:13:49;26.03;;;18.40;;
3427;SDS011;1727;42.624;23.406;2023-04-08T10:16:17;28.63;;;16.70;;
3427;SDS011;1727;42.624;23.406;2023-04-08T10:18:46;18.53;;;15.13;;
3427;SDS011;1727;42.624;23.406;2023-04-08T10:21:32;24.43;;;16.23;;
3427;SDS011;1727;42.624;23.406;2023-04-08T10:24:02;22.00;;;15.23;;
3427;SDS011;1727;42.624;23.406;2023-04-08T10:26:33;18.63;;;14.57;;
3427;SDS011;1727;42.624;23.406;2023-04-08T10:31:58;21.00;;;16.13;;
3427;SDS011;1727;42.624;23.406;2023-04-08T10:34:25;23.20;;;17.00;;
3427;SDS011;1727;42.624;23.406;2023-04-08T10:36:53;25.83;;;17.60;;
3427;SDS011;1727;42.624;23.406;2023-04-08T10:39:23;19.07;;;14.60;;
3427;SDS011;1727;42.624;23.406;2023-04-08T10:41:51;21.50;;;14.73;;
3427;SDS011;1727;42.624;23.406;2023-04-08T10:44:18;21.77;;;15.77;;
3427;SDS011;1727;42.624;23.406;2023-04-08T10:46:46;22.33;;;14.93;;
3427;SDS011;1727;42.624;23.406;2023-04-08T10:49:14;20.27;;;15.73;;
3427;SDS011;1727;42.624;23.406;2023-04-08T10:51:41;20.27;;;14.83;;
3427;SDS011;1727;42.624;23.406;2023-04-08T10:54:10;19.03;;;13.83;;
3427;SDS011;1727;42.624;23.406;2023-04-08T10:56:43;20.13;;;17.03;;
3427;SDS011;1727;42.624;23.406;2023-04-08T10:59:12;17.93;;;12.03;;
3427;SDS011;1727;42.624;23.406;2023-04-08T11:01:41;17.17;;;13.13;;
3427;SDS011;1727;42.624;23.406;2023-04-08T11:04:15;16.97;;;12.30;;
3427;SDS011;1727;42.624;23.406;2023-04-08T11:06:45;14.47;;;12.03;;
3427;SDS011;1727;42.624;23.406;2023-04-08T11:09:12;22.90;;;13.90;;
3427;SDS011;1727;42.624;23.406;2023-04-08T11:11:41;16.43;;;12.97;;
3427;SDS011;1727;42.624;23.406;2023-04-08T11:14:12;16.70;;;12.60;;
3427;SDS011;1727;42.624;23.406;2023-04-08T11:16:41;16.80;;;13.20;;
3427;SDS011;1727;42.624;23.406;2023-04-08T11:19:08;24.87;;;14.33;;
3427;SDS011;1727;42.624;23.406;2023-04-08T11:21:35;17.03;;;12.90;;
3427;SDS011;1727;42.624;23.406;2023-04-08T11:24:06;18.90;;;13.97;;
3427;SDS011;1727;42.624;23.406;2023-04-08T11:26:36;23.27;;;15.47;;
3427;SDS011;1727;42.624;23.406;2023-04-08T11:29:03;17.60;;;12.73;;
3427;SDS011;1727;42.624;23.406;2023-04-08T11:31:33;25.87;;;18.57;;
3427;SDS011;1727;42.624;23.406;2023-04-08T11:34:00;21.23;;;15.30;;
3427;SDS011;1727;42.624;23.406;2023-04-08T11:36:27;21.00;;;14.00;;
3427;SDS011;1727;42.624;23.406;2023-04-08T11:38:54;17.50;;;14.10;;
3427;SDS011;1727;42.624;23.406;2023-04-08T11:41:21;17.80;;;13.13;;
3427;SDS011;1727;42.624;23.406;2023-04-08T11:43:54;17.67;;;13.90;;
3427;SDS011;1727;42.624;23.406;2023-04-08T11:46:22;20.93;;;11.63;;
3427;SDS011;1727;42.624;23.406;2023-04-08T11:48:58;19.47;;;13.90;;
3427;SDS011;1727;42.624;23.406;2023-04-08T11:51:25;17.90;;;13.77;;
3427;SDS011;1727;42.624;23.406;2023-04-08T11:53:53;17.13;;;14.30;;
3427;SDS011;1727;42.624;23.406;2023-04-08T11:56:20;15.50;;;13.00;;
3427;SDS011;1727;42.624;23.406;2023-04-08T11:58:48;15.00;;;12.60;;
3427;SDS011;1727;42.624;23.406;2023-04-08T12:01:16;16.13;;;14.03;;
3427;SDS011;1727;42.624;23.406;2023-04-08T12:03:53;23.87;;;17.60;;
3427;SDS011;1727;42.624;23.406;2023-04-08T12:06:22;22.70;;;17.20;;
3427;SDS011;1727;42.624;23.406;2023-04-08T12:08:51;21.23;;;14.80;;
3427;SDS011;1727;42.624;23.406;2023-04-08T12:11:18;16.13;;;11.83;;
3427;SDS011;1727;42.624;23.406;2023-04-08T12:13:45;17.20;;;13.27;;
3427;SDS011;1727;42.624;23.406;2023-04-08T12:16:13;17.63;;;14.10;;
3427;SDS011;1727;42.624;23.406;2023-04-08T12:18:40;17.17;;;11.63;;
3427;SDS011;1727;42.624;23.406;2023-04-08T12:21:07;14.80;;;13.27;;
3427;SDS011;1727;42.624;23.406;2023-04-08T12:23:35;21.17;;;14.60;;
3427;SDS011;1727;42.624;23.406;2023-04-08T12:26:02;11.37;;;9.23;;
3427;SDS011;1727;42.624;23.406;2023-04-08T12:28:29;10.50;;;8.73;;
3427;SDS011;1727;42.624;23.406;2023-04-08T12:30:55;11.33;;;10.10;;
3427;SDS011;1727;42.624;23.406;2023-04-08T12:33:22;15.60;;;10.97;;
3427;SDS011;1727;42.624;23.406;2023-04-08T12:35:49;11.70;;;10.17;;
3427;SDS011;1727;42.624;23.406;2023-04-08T12:38:16;18.07;;;13.33;;
3427;SDS011;1727;42.624;23.406;2023-04-08T12:40:44;19.73;;;11.63;;
3427;SDS011;1727;42.624;23.406;2023-04-08T12:43:11;20.90;;;16.43;;
3427;SDS011;1727;42.624;23.406;2023-04-08T12:45:37;16.50;;;11.60;;
3427;SDS011;1727;42.624;23.406;2023-04-08T12:48:04;13.87;;;10.97;;
3427;SDS011;1727;42.624;23.406;2023-04-08T12:50:31;14.20;;;11.40;;
3427;SDS011;1727;42.624;23.406;2023-04-08T12:52:58;15.50;;;11.43;;
3427;SDS011;1727;42.624;23.406;2023-04-08T12:55:25;17.70;;;12.00;;
3427;SDS011;1727;42.624;23.406;2023-04-08T12:57:53;13.20;;;11.50;;
3427;SDS011;1727;42.624;23.406;2023-04-08T13:00:20;16.67;;;12.63;;
3427;SDS011;1727;42.624;23.406;2023-04-08T13:02:47;15.10;;;12.90;;
3427;SDS011;1727;42.624;23.406;2023-04-08T13:05:14;17.40;;;11.10;;
3427;SDS011;1727;42.624;23.406;2023-04-08T13:07:41;14.23;;;12.63;;
3427;SDS011;1727;42.624;23.406;2023-04-08T13:10:08;14.47;;;11.40;;
3427;SDS011;1727;42.624;23.406;2023-04-08T13:12:35;16.20;;;12.80;;
3427;SDS011;1727;42.624;23.406;2023-04-08T13:15:06;12.53;;;9.73;;
3427;SDS011;1727;42.624;23.406;2023-04-08T13:17:34;12.30;;;9.77;;
3427;SDS011;1727;42.624;23.406;2023-04-08T13:20:00;15.60;;;11.10;;
3427;SDS011;1727;42.624;23.406;2023-04-08T13:22:27;21.03;;;14.83;;
3427;SDS011;1727;42.624;23.406;2023-04-08T13:24:54;14.47;;;11.40;;
3427;SDS011;1727;42.624;23.406;2023-04-08T13:27:21;12.37;;;11.07;;
3427;SDS011;1727;42.624;23.406;2023-04-08T13:29:47;13.57;;;11.67;;
3427;SDS011;1727;42.624;23.406;2023-04-08T13:32:16;15.57;;;11.23;;
3427;SDS011;1727;42.624;23.406;2023-04-08T13:34:42;14.17;;;12.17;;
3427;SDS011;1727;42.624;23.406;2023-04-08T13:37:09;14.13;;;11.50;;
3427;SDS011;1727;42.624;23.406;2023-04-08T13:39:36;19.57;;;11.80;;
3427;SDS011;1727;42.624;23.406;2023-04-08T13:42:03;14.43;;;11.90;;
3427;SDS011;1727;42.624;23.406;2023-04-08T13:44:29;13.20;;;11.90;;
3427;SDS011;1727;42.624;23.406;2023-04-08T13:46:57;20.77;;;10.57;;
3427;SDS011;1727;42.624;23.406;2023-04-08T13:49:25;13.67;;;12.10;;
3427;SDS011;1727;42.624;23.406;2023-04-08T13:51:52;14.33;;;12.47;;
3427;SDS011;1727;42.624;23.406;2023-04-08T13:54:19;18.57;;;13.13;;
3427;SDS011;1727;42.624;23.406;2023-04-08T13:56:46;13.80;;;12.30;;
3427;SDS011;1727;42.624;23.406;2023-04-08T13:59:13;15.07;;;12.00;;
3427;SDS011;1727;42.624;23.406;2023-04-08T14:01:40;14.40;;;12.00;;
3427;SDS011;1727;42.624;23.406;2023-04-08T14:04:07;14.83;;;11.60;;
3427;SDS011;1727;42.624;23.406;2023-04-08T14:06:35;15.27;;;13.20;;
3427;SDS011;1727;42.624;23.406;2023-04-08T14:09:02;18.40;;;13.63;;
3427;SDS011;1727;42.624;23.406;2023-04-08T14:11:28;14.60;;;12.23;;
3427;SDS011;1727;42.624;23.406;2023-04-08T14:13:55;15.53;;;13.20;;
3427;SDS011;1727;42.624;23.406;2023-04-08T14:16:22;20.63;;;14.17;;
3427;SDS011;1727;42.624;23.406;2023-04-08T14:18:49;18.47;;;15.50;;
3427;SDS011;1727;42.624;23.406;2023-04-08T14:21:15;14.43;;;12.63;;
3427;SDS011;1727;42.624;23.406;2023-04-08T14:23:44;15.10;;;12.57;;
3427;SDS011;1727;42.624;23.406;2023-04-08T14:26:11;16.50;;;14.37;;
3427;SDS011;1727;42.624;23.406;2023-04-08T14:28:38;15.30;;;13.27;;
3427;SDS011;1727;42.624;23.406;2023-04-08T14:31:04;14.17;;;12.10;;
3427;SDS011;1727;42.624;23.406;2023-04-08T14:33:31;14.57;;;12.50;;
3427;SDS011;1727;42.624;23.406;2023-04-08T14:35:58;17.20;;;12.87;;
3427;SDS011;1727;42.624;23.406;2023-04-08T14:38:25;21.73;;;13.00;;
3427;SDS011;1727;42.624;23.406;2023-04-08T14:40:53;14.80;;;12.13;;
3427;SDS011;1727;42.624;23.406;2023-04-08T14:43:20;17.30;;;13.73;;